Time;durP1;ratioP1;P1;durP2;ratioP2;P2;SDS_P1;SDS_P2;PMS_P1;PMS_P2;Temp;Humidity;BMP_temperature;BMP_pressure;BME280_temperature;BME280_humidity;BME280_pressure;Samples;Min_cycle;Max_cycle;Signal;HPM_P1;HPM_P2
2023/07/31 00:00:13;;;;;;;12.10;3.03;;;16.60;99.90;;;;;;5073830;28;20214;-43
2023/07/31 00:02:44;;;;;;;7.30;2.93;;;16.60;99.90;;;;;;5109978;28;20170;-43
2023/07/31 00:05:10;;;;;;;7.90;2.87;;;16.60;99.90;;;;;;5112317;28;20181;-43
2023/07/31 00:07:36;;;;;;;9.03;3.17;;;16.60;99.90;;;;;;5114589;28;20223;-43
2023/07/31 00:10:06;;;;;;;6.03;3.07;;;16.70;99.90;;;;;;5114522;28;20224;-44
2023/07/31 00:12:32;;;;;;;8.93;3.07;;;16.60;99.90;;;;;;5113475;28;20184;-44
2023/07/31 00:14:58;;;;;;;8.17;3.10;;;16.60;99.90;;;;;;5112874;28;20186;-43
2023/07/31 00:17:24;;;;;;;12.30;3.17;;;16.60;99.90;;;;;;5096044;28;20248;-42
2023/07/31 00:19:50;;;;;;;8.77;2.90;;;16.60;99.90;;;;;;5095815;28;20238;-44
2023/07/31 00:22:16;;;;;;;6.97;2.47;;;16.60;99.90;;;;;;5114107;28;20193;-44
2023/07/31 00:24:42;;;;;;;8.70;2.77;;;16.60;99.90;;;;;;5113946;28;20186;-45
2023/07/31 00:27:08;;;;;;;9.33;2.87;;;16.60;99.90;;;;;;5095641;28;20208;-44
2023/07/31 00:29:33;;;;;;;7.07;2.63;;;16.60;99.90;;;;;;5114891;28;20180;-44
2023/07/31 00:31:59;;;;;;;5.63;2.60;;;16.60;99.90;;;;;;5095733;28;20201;-41
2023/07/31 00:34:26;;;;;;;9.00;2.37;;;16.60;99.90;;;;;;5095539;28;20669;-44
2023/07/31 00:36:52;;;;;;;8.00;2.80;;;16.60;99.90;;;;;;5114088;28;20284;-42
2023/07/31 00:39:18;;;;;;;8.63;2.97;;;16.60;99.90;;;;;;5113894;28;20292;-44
2023/07/31 00:41:46;;;;;;;5.13;2.70;;;16.60;99.90;;;;;;5114111;28;20170;-42
2023/07/31 00:44:12;;;;;;;8.50;3.00;;;16.60;99.90;;;;;;5113813;28;20167;-44
2023/07/31 00:46:38;;;;;;;5.27;2.37;;;16.70;99.90;;;;;;5114038;28;20688;-44
2023/07/31 00:49:05;;;;;;;10.00;2.80;;;16.60;99.90;;;;;;5113974;28;20674;-43
2023/07/31 00:51:30;;;;;;;6.77;2.60;;;16.60;99.90;;;;;;5095610;28;20174;-45
2023/07/31 00:53:56;;;;;;;8.00;2.67;;;16.60;99.90;;;;;;5113624;28;20294;-44
2023/07/31 00:56:26;;;;;;;8.23;2.90;;;16.60;99.90;;;;;;5114135;28;20206;-44
2023/07/31 01:16:53;;;;;;;10.07;3.17;;;16.50;99.90;;;;;;5114073;28;20278;-48
2023/07/31 01:22:45;;;;;;;8.97;2.73;;;16.50;99.90;;;;;;5113385;28;20157;-42
2023/07/31 01:25:29;;;;;;;7.23;2.87;;;16.40;99.90;;;;;;5113184;28;20250;-43
2023/07/31 01:28:07;;;;;;;6.17;2.77;;;16.50;99.90;;;;;;5113421;28;20169;-44
2023/07/31 01:30:37;;;;;;;8.30;3.10;;;16.40;99.90;;;;;;5113248;28;20240;-44
2023/07/31 01:33:07;;;;;;;7.57;2.73;;;16.40;99.90;;;;;;5114191;28;20551;-45
2023/07/31 01:35:34;;;;;;;10.07;3.30;;;16.40;99.90;;;;;;5113095;28;20218;-44
2023/07/31 01:38:00;;;;;;;9.30;2.57;;;16.50;99.90;;;;;;5113381;28;20546;-45
2023/07/31 01:40:26;;;;;;;11.07;3.03;;;16.50;99.90;;;;;;5113180;28;20194;-42
2023/07/31 01:42:52;;;;;;;7.97;3.07;;;16.40;99.90;;;;;;5095052;28;20181;-41
2023/07/31 01:45:17;;;;;;;7.83;2.83;;;16.50;99.90;;;;;;5113369;28;20595;-43
2023/07/31 01:47:43;;;;;;;12.27;3.13;;;16.50;99.90;;;;;;5116275;28;20189;-41
2023/07/31 01:50:09;;;;;;;9.20;2.83;;;16.50;99.90;;;;;;5116976;28;20186;-43
2023/07/31 01:52:35;;;;;;;9.43;3.00;;;16.50;99.90;;;;;;5117246;28;20190;-42
2023/07/31 01:55:01;;;;;;;9.87;3.03;;;16.50;99.90;;;;;;5117413;28;20201;-43
2023/07/31 01:57:26;;;;;;;5.13;2.80;;;16.50;99.90;;;;;;5116806;28;20205;-43
2023/07/31 01:59:53;;;;;;;6.40;2.97;;;16.50;99.90;;;;;;5116715;28;20233;-42
2023/07/31 02:40:28;;;;;;;6.50;2.90;;;16.70;99.90;;;;;;5115342;28;20604;-43
2023/07/31 02:42:53;;;;;;;8.77;3.50;;;16.70;99.90;;;;;;5116174;28;20170;-41
2023/07/31 02:45:19;;;;;;;6.87;3.27;;;16.70;99.90;;;;;;5116471;28;20256;-43
2023/07/31 02:47:45;;;;;;;7.43;3.00;;;16.70;99.90;;;;;;5116018;28;20231;-43
2023/07/31 02:50:10;;;;;;;9.53;3.33;;;16.70;99.90;;;;;;5116114;28;20623;-42
2023/07/31 02:52:36;;;;;;;6.63;2.90;;;16.80;99.90;;;;;;5116075;28;20206;-42
2023/07/31 02:55:02;;;;;;;6.43;3.40;;;16.80;99.90;;;;;;5116133;28;20189;-42
2023/07/31 02:57:27;;;;;;;9.30;3.67;;;16.80;99.90;;;;;;5115682;28;20263;-43
2023/07/31 02:59:53;;;;;;;7.87;3.00;;;16.80;99.90;;;;;;5116082;28;20305;-43
2023/07/31 03:02:18;;;;;;;6.40;3.43;;;16.80;99.90;;;;;;5115521;28;20266;-42
2023/07/31 03:04:44;;;;;;;7.30;3.40;;;16.80;99.90;;;;;;5115782;28;20224;-42
2023/07/31 03:07:09;;;;;;;6.40;3.30;;;16.80;99.90;;;;;;5115553;28;20220;-42
2023/07/31 03:09:35;;;;;;;8.67;3.80;;;16.80;99.90;;;;;;5115550;28;20178;-42
2023/07/31 03:12:01;;;;;;;14.67;4.10;;;16.80;99.90;;;;;;5115311;28;20182;-44
2023/07/31 03:14:26;;;;;;;11.50;3.70;;;16.80;99.90;;;;;;5115356;28;20186;-45
2023/07/31 03:16:52;;;;;;;7.87;3.17;;;16.80;99.90;;;;;;5115095;28;20229;-43
2023/07/31 03:19:18;;;;;;;10.50;3.63;;;16.70;99.90;;;;;;5115317;28;20566;-43
2023/07/31 03:21:44;;;;;;;12.27;3.43;;;16.70;99.90;;;;;;5115499;28;20193;-43
2023/07/31 03:24:11;;;;;;;8.67;3.33;;;16.70;99.90;;;;;;5115505;28;20174;-44
2023/07/31 03:26:38;;;;;;;8.87;3.63;;;16.70;99.90;;;;;;5115118;28;20273;-43
2023/07/31 03:29:03;;;;;;;8.83;3.43;;;16.70;99.90;;;;;;5115991;28;20178;-43
2023/07/31 03:31:29;;;;;;;19.53;4.10;;;16.70;99.90;;;;;;5118001;28;20178;-45
2023/07/31 03:33:54;;;;;;;6.17;3.13;;;16.70;99.90;;;;;;5115484;28;20178;-43
2023/07/31 03:36:22;;;;;;;5.80;3.10;;;16.70;99.90;;;;;;5114870;28;20281;-43
2023/07/31 03:38:47;;;;;;;4.87;2.90;;;16.70;99.90;;;;;;5096561;28;20210;-44
2023/07/31 04:29:19;;;;;;;6.80;3.47;;;16.70;99.90;;;;;;5114386;28;20174;-43
2023/07/31 04:32:20;;;;;;;6.60;3.27;;;16.80;99.90;;;;;;5113340;28;20642;-41
2023/07/31 04:35:06;;;;;;;4.70;2.90;;;16.70;99.90;;;;;;5113575;28;20186;-42
2023/07/31 04:37:34;;;;;;;8.40;3.80;;;16.80;99.90;;;;;;5114344;28;20173;-42
2023/07/31 04:40:09;;;;;;;8.40;3.67;;;16.80;99.90;;;;;;5113539;28;20245;-43
2023/07/31 04:42:37;;;;;;;8.87;3.30;;;16.80;99.90;;;;;;5113833;28;20200;-43
2023/07/31 04:45:23;;;;;;;6.23;3.10;;;16.80;99.90;;;;;;5095532;28;20178;-43
2023/07/31 04:47:51;;;;;;;7.20;3.43;;;16.90;99.90;;;;;;5113908;28;20208;-43
2023/07/31 04:50:36;;;;;;;5.57;3.40;;;16.90;99.90;;;;;;5114105;28;20182;-43
2023/07/31 04:53:06;;;;;;;9.00;3.43;;;16.90;99.90;;;;;;5094949;28;20193;-42
2023/07/31 04:55:41;;;;;;;6.03;3.20;;;16.90;99.90;;;;;;5113820;28;20197;-44
2023/07/31 04:58:07;;;;;;;6.23;3.20;;;16.90;99.90;;;;;;5113766;28;20190;-41
2023/07/31 05:00:36;;;;;;;6.10;3.53;;;16.90;99.90;;;;;;5113017;28;20217;-43
2023/07/31 05:03:02;;;;;;;6.70;3.37;;;17.00;99.90;;;;;;5113622;28;20186;-43
2023/07/31 05:05:28;;;;;;;5.70;3.17;;;17.00;99.90;;;;;;5095577;28;20200;-42
2023/07/31 05:07:54;;;;;;;8.60;3.37;;;17.00;99.90;;;;;;5113846;28;20586;-44
2023/07/31 05:10:19;;;;;;;6.40;3.23;;;17.00;99.90;;;;;;5095611;28;20615;-44
2023/07/31 05:12:45;;;;;;;7.23;3.27;;;17.00;99.90;;;;;;5095857;28;20213;-43
2023/07/31 05:15:11;;;;;;;7.13;3.03;;;17.00;99.90;;;;;;5095271;28;20186;-44
2023/07/31 05:17:37;;;;;;;5.90;3.30;;;17.00;99.90;;;;;;5095382;28;20223;-41
2023/07/31 05:20:03;;;;;;;6.73;3.10;;;17.00;99.90;;;;;;5095389;28;20209;-43
2023/07/31 05:22:29;;;;;;;8.07;2.87;;;17.00;99.90;;;;;;5116598;28;20181;-43
2023/07/31 05:24:54;;;;;;;10.13;3.30;;;17.00;99.90;;;;;;5117597;28;20174;-44
2023/07/31 05:27:20;;;;;;;6.13;2.77;;;17.00;99.90;;;;;;5117425;28;20266;-43
2023/07/31 05:29:45;;;;;;;7.63;3.50;;;17.00;99.90;;;;;;5099135;28;20554;-42
2023/07/31 05:32:12;;;;;;;5.33;3.30;;;17.00;99.90;;;;;;5099152;28;20186;-43
2023/07/31 05:34:37;;;;;;;5.43;2.77;;;17.00;99.90;;;;;;5117775;28;20576;-41
2023/07/31 05:37:03;;;;;;;7.33;2.70;;;17.00;99.90;;;;;;5117252;28;20324;-42
2023/07/31 05:39:29;;;;;;;10.37;3.10;;;16.90;99.90;;;;;;5117360;28;20300;-43
2023/07/31 05:41:54;;;;;;;7.20;3.90;;;16.90;99.90;;;;;;5098797;28;20204;-44
2023/07/31 05:44:20;;;;;;;8.93;2.80;;;16.90;99.90;;;;;;5117132;28;20174;-46
2023/07/31 05:46:45;;;;;;;8.60;2.77;;;16.90;99.90;;;;;;5117256;28;20250;-44
2023/07/31 05:49:11;;;;;;;7.37;2.77;;;16.90;99.90;;;;;;5117270;28;20205;-44
2023/07/31 05:51:37;;;;;;;5.40;2.63;;;16.90;99.90;;;;;;5117161;28;20223;-43
2023/07/31 05:54:03;;;;;;;6.90;3.40;;;16.90;99.90;;;;;;5117464;28;20214;-44
2023/07/31 05:56:28;;;;;;;5.40;2.50;;;16.90;99.90;;;;;;5098656;28;20206;-42
2023/07/31 05:58:54;;;;;;;6.13;2.97;;;16.90;99.90;;;;;;5116672;28;20212;-44
2023/07/31 06:01:21;;;;;;;5.30;2.47;;;16.80;99.90;;;;;;5098471;28;20178;-43
2023/07/31 06:03:47;;;;;;;5.27;2.70;;;16.90;99.90;;;;;;5098576;28;20182;-44
2023/07/31 06:06:13;;;;;;;5.50;3.03;;;16.90;99.90;;;;;;5098454;28;20259;-44
2023/07/31 06:08:39;;;;;;;5.43;2.50;;;16.90;99.90;;;;;;5116609;28;20181;-45
2023/07/31 06:11:06;;;;;;;5.13;2.70;;;16.90;99.90;;;;;;5116877;28;20179;-43
2023/07/31 06:13:31;;;;;;;5.13;2.47;;;16.90;99.90;;;;;;5117684;28;20700;-44
2023/07/31 06:15:59;;;;;;;5.40;2.67;;;16.90;99.90;;;;;;5098323;28;20198;-42
2023/07/31 06:18:24;;;;;;;13.17;3.67;;;16.90;99.90;;;;;;5116446;28;20689;-45
2023/07/31 06:20:53;;;;;;;5.10;2.53;;;17.00;99.90;;;;;;5116355;28;20339;-43
2023/07/31 06:23:20;;;;;;;5.33;2.50;;;17.00;99.90;;;;;;5116710;28;20181;-44
2023/07/31 06:25:46;;;;;;;7.33;3.17;;;17.00;99.90;;;;;;5098401;28;20574;-43
2023/07/31 06:28:11;;;;;;;7.63;3.03;;;17.10;99.90;;;;;;5098167;28;20186;-42
2023/07/31 06:30:37;;;;;;;6.50;2.83;;;17.10;99.90;;;;;;5098183;28;20193;-42
2023/07/31 06:33:02;;;;;;;6.63;2.60;;;17.20;99.90;;;;;;5097589;28;20277;-44
2023/07/31 06:35:28;;;;;;;5.00;2.63;;;17.30;99.90;;;;;;5098508;28;20202;-43
2023/07/31 06:37:54;;;;;;;6.33;2.60;;;17.30;99.90;;;;;;5116630;28;20186;-43
2023/07/31 06:40:20;;;;;;;5.90;2.77;;;17.30;99.90;;;;;;5116170;28;20205;-44
2023/07/31 06:42:45;;;;;;;6.20;2.80;;;17.40;99.90;;;;;;5116030;28;20194;-43
2023/07/31 06:45:11;;;;;;;4.87;2.40;;;17.40;99.90;;;;;;5097928;28;20182;-42
2023/07/31 06:47:37;;;;;;;6.10;2.60;;;17.50;99.90;;;;;;5097818;28;20182;-44
2023/07/31 06:50:03;;;;;;;5.97;2.37;;;17.50;99.90;;;;;;5115948;28;20239;-41
2023/07/31 06:52:29;;;;;;;5.23;2.30;;;17.50;99.90;;;;;;5115815;28;20209;-41
2023/07/31 06:55:28;;;;;;;4.70;2.53;;;17.50;99.90;;;;;;5116750;28;20181;-44
2023/07/31 06:57:55;;;;;;;5.47;2.60;;;17.50;99.90;;;;;;5092616;28;20208;-46
2023/07/31 07:00:22;;;;;;;7.00;2.87;;;17.50;99.90;;;;;;5115717;28;20205;-44
2023/07/31 07:02:49;;;;;;;5.20;2.60;;;17.50;99.90;;;;;;5115773;28;20177;-44
2023/07/31 07:05:18;;;;;;;5.67;2.67;;;17.50;99.90;;;;;;5116213;28;20219;-48
2023/07/31 07:07:44;;;;;;;5.93;2.70;;;17.50;99.90;;;;;;5115610;28;20249;-44
2023/07/31 07:10:10;;;;;;;5.80;2.53;;;17.50;99.90;;;;;;5115598;28;20262;-43
2023/07/31 07:12:39;;;;;;;6.07;2.33;;;17.50;99.90;;;;;;5115602;28;20220;-45
2023/07/31 07:15:08;;;;;;;4.47;2.70;;;17.40;99.90;;;;;;5115824;28;20174;-47
2023/07/31 07:17:35;;;;;;;6.80;2.50;;;17.40;99.90;;;;;;5097125;28;20178;-44
2023/07/31 07:20:01;;;;;;;9.73;2.43;;;17.30;99.90;;;;;;5080261;28;20202;-43
2023/07/31 07:22:27;;;;;;;6.10;2.70;;;17.30;99.90;;;;;;5097065;28;20182;-45
2023/07/31 07:24:54;;;;;;;4.13;2.20;;;17.30;99.90;;;;;;5097045;28;20178;-44
2023/07/31 07:27:35;;;;;;;4.63;2.30;;;17.30;99.90;;;;;;5115157;28;20562;-44
2023/07/31 07:30:01;;;;;;;5.13;2.47;;;17.20;99.90;;;;;;5115505;28;20574;-43
2023/07/31 07:32:27;;;;;;;5.07;2.47;;;17.20;99.90;;;;;;5115831;28;20182;-44
2023/07/31 07:34:53;;;;;;;6.63;2.40;;;17.20;99.90;;;;;;5096826;28;20269;-42
2023/07/31 07:37:25;;;;;;;5.30;2.30;;;17.10;99.90;;;;;;5115440;28;20236;-44
2023/07/31 07:39:50;;;;;;;5.13;2.50;;;17.10;99.90;;;;;;5115473;28;20236;-43
2023/07/31 07:42:16;;;;;;;5.00;2.33;;;17.10;99.90;;;;;;5114862;28;20598;-44
2023/07/31 07:44:42;;;;;;;4.43;2.33;;;17.10;99.90;;;;;;5096106;28;20181;-44
2023/07/31 07:47:08;;;;;;;5.03;2.33;;;17.10;99.90;;;;;;5096509;28;20251;-44
2023/07/31 07:49:34;;;;;;;7.50;2.67;;;17.10;99.90;;;;;;5096741;28;20549;-45
2023/07/31 07:52:01;;;;;;;4.43;2.53;;;17.10;99.90;;;;;;5096579;28;20197;-44
2023/07/31 07:54:27;;;;;;;7.37;2.53;;;17.20;99.90;;;;;;5115238;28;20174;-44
2023/07/31 07:56:52;;;;;;;5.30;2.60;;;17.20;99.90;;;;;;5114755;28;20194;-43
2023/07/31 07:59:20;;;;;;;5.60;2.27;;;17.20;99.90;;;;;;5114679;28;20564;-43
2023/07/31 08:01:46;;;;;;;5.43;2.50;;;17.30;99.90;;;;;;5114781;28;20205;-44
2023/07/31 08:04:12;;;;;;;6.13;2.30;;;17.20;99.90;;;;;;5079518;28;20178;-43
2023/07/31 08:06:38;;;;;;;7.97;2.80;;;17.20;99.90;;;;;;5096219;28;20198;-42
2023/07/31 08:09:06;;;;;;;4.20;2.40;;;17.20;99.90;;;;;;5114846;28;20184;-43
2023/07/31 08:11:32;;;;;;;5.97;2.50;;;17.10;99.90;;;;;;5114702;28;20197;-44
2023/07/31 08:13:58;;;;;;;3.10;2.10;;;17.10;99.90;;;;;;5114550;28;20182;-42
2023/07/31 08:16:23;;;;;;;4.27;2.37;;;17.10;99.90;;;;;;5096060;28;20546;-43
2023/07/31 08:18:49;;;;;;;7.60;2.70;;;17.20;99.90;;;;;;5095884;28;20186;-43
2023/07/31 08:21:15;;;;;;;5.00;2.70;;;17.20;99.90;;;;;;5079219;28;20182;-43
2023/07/31 08:23:41;;;;;;;6.10;2.70;;;17.20;99.90;;;;;;5096004;28;20182;-43
2023/07/31 08:26:07;;;;;;;4.03;2.47;;;17.20;99.90;;;;;;5114152;28;20197;-43
2023/07/31 08:28:33;;;;;;;7.97;2.80;;;17.30;99.90;;;;;;5096078;28;20174;-43
2023/07/31 08:30:58;;;;;;;4.70;2.40;;;17.30;99.90;;;;;;5114242;28;20171;-44
2023/07/31 08:33:24;;;;;;;5.53;2.70;;;17.30;99.90;;;;;;5114893;28;20169;-44
2023/07/31 08:35:50;;;;;;;5.00;2.60;;;17.30;99.90;;;;;;5114139;28;20193;-45
2023/07/31 08:38:19;;;;;;;3.70;2.40;;;17.40;99.90;;;;;;5114437;28;20178;-42
2023/07/31 08:40:45;;;;;;;4.40;2.07;;;17.40;99.90;;;;;;5113906;28;20210;-43
2023/07/31 08:43:10;;;;;;;5.83;2.40;;;17.40;99.90;;;;;;5114169;28;20159;-43
2023/07/31 08:45:39;;;;;;;3.57;2.17;;;17.40;99.90;;;;;;5114285;28;20201;-44
2023/07/31 08:48:05;;;;;;;6.07;2.50;;;17.50;99.90;;;;;;5114148;28;20550;-42
2023/07/31 08:50:34;;;;;;;4.80;2.20;;;17.50;99.90;;;;;;5114163;28;20174;-46
2023/07/31 08:53:00;;;;;;;3.87;2.17;;;17.50;99.90;;;;;;5114530;28;20178;-43
2023/07/31 08:55:32;;;;;;;6.30;2.20;;;17.40;99.90;;;;;;5114159;28;20217;-44
2023/07/31 08:57:58;;;;;;;6.23;2.60;;;17.50;99.90;;;;;;5118069;28;20190;-44
2023/07/31 09:00:25;;;;;;;6.90;2.53;;;17.60;99.90;;;;;;5118107;28;20197;-43
2023/07/31 09:03:11;;;;;;;11.63;2.70;;;17.60;99.90;;;;;;5099718;28;20174;-43
2023/07/31 09:05:41;;;;;;;6.97;2.40;;;17.70;99.90;;;;;;5117987;28;20196;-43
2023/07/31 09:08:09;;;;;;;6.53;2.73;;;17.80;99.90;;;;;;5117836;28;20294;-43
2023/07/31 09:10:35;;;;;;;3.70;2.50;;;17.80;99.90;;;;;;5099695;28;20332;-46
2023/07/31 09:13:02;;;;;;;6.30;2.53;;;17.80;99.90;;;;;;5099480;28;20269;-44
2023/07/31 09:15:29;;;;;;;6.57;2.90;;;17.80;99.90;;;;;;5099530;28;20746;-41
2023/07/31 09:18:03;;;;;;;4.53;2.40;;;17.90;99.90;;;;;;5099544;28;20579;-44
2023/07/31 09:20:29;;;;;;;8.93;2.50;;;18.00;99.90;;;;;;5117671;28;20205;-44
2023/07/31 09:22:56;;;;;;;5.63;2.33;;;18.10;99.90;;;;;;5117693;28;20162;-44
2023/07/31 09:25:26;;;;;;;6.00;2.00;;;18.20;99.90;;;;;;5117645;28;20203;-44
2023/07/31 09:28:01;;;;;;;6.63;2.53;;;18.30;99.90;;;;;;5117672;28;20528;-43
2023/07/31 09:30:27;;;;;;;4.53;2.37;;;18.40;99.90;;;;;;5117400;28;20193;-44
2023/07/31 09:33:06;;;;;;;6.97;2.77;;;18.40;99.90;;;;;;5117719;28;20178;-42
2023/07/31 09:35:37;;;;;;;7.03;2.40;;;18.40;99.90;;;;;;5117810;28;20570;-43
2023/07/31 09:38:09;;;;;;;5.80;2.70;;;18.50;99.90;;;;;;5118467;28;20170;-44
2023/07/31 09:40:36;;;;;;;5.63;2.67;;;18.50;99.90;;;;;;5098869;28;20575;-44
2023/07/31 09:43:04;;;;;;;5.63;2.50;;;18.50;99.90;;;;;;5117609;28;20283;-43
2023/07/31 09:45:34;;;;;;;9.30;2.90;;;18.50;99.90;;;;;;5117184;28;20205;-45
2023/07/31 09:47:59;;;;;;;8.20;2.60;;;18.40;99.90;;;;;;5117410;28;20213;-44
2023/07/31 09:50:25;;;;;;;5.20;2.63;;;18.40;99.90;;;;;;5098774;28;20214;-43
2023/07/31 09:52:52;;;;;;;5.00;2.50;;;18.30;99.90;;;;;;5117494;28;20202;-43
2023/07/31 09:55:19;;;;;;;3.97;2.10;;;18.30;99.90;;;;;;5117676;28;20676;-43
2023/07/31 09:57:51;;;;;;;7.43;2.83;;;18.30;99.90;;;;;;5117633;28;20174;-49
2023/07/31 10:03:50;;;;;;;9.47;2.30;;;18.30;99.90;;;;;;5081903;28;20254;-44
2023/07/31 10:06:19;;;;;;;4.17;2.50;;;18.30;99.90;;;;;;5117945;28;20228;-43
2023/07/31 10:08:48;;;;;;;5.33;2.50;;;18.40;99.90;;;;;;5116184;28;20163;-42
2023/07/31 10:11:15;;;;;;;5.43;2.80;;;18.40;99.90;;;;;;5116839;28;20636;-43
2023/07/31 10:13:42;;;;;;;4.20;2.30;;;18.50;99.90;;;;;;5116682;28;20518;-43
2023/07/31 10:16:08;;;;;;;4.73;2.43;;;18.50;99.90;;;;;;5116806;28;20198;-42
2023/07/31 10:18:35;;;;;;;2.80;1.93;;;18.60;99.90;;;;;;5098396;28;20176;-44
2023/07/31 10:21:01;;;;;;;5.90;2.50;;;18.60;99.90;;;;;;5098176;28;20765;-41
2023/07/31 10:23:27;;;;;;;4.10;2.20;;;18.60;99.90;;;;;;5098216;28;20182;-44
2023/07/31 10:25:57;;;;;;;4.40;2.07;;;18.60;99.90;;;;;;5116867;28;20640;-43
2023/07/31 10:28:25;;;;;;;3.67;1.77;;;18.70;99.90;;;;;;5116488;28;20178;-44
2023/07/31 10:30:51;;;;;;;3.27;1.60;;;18.80;99.90;;;;;;5116410;28;20170;-45
2023/07/31 10:33:20;;;;;;;2.73;2.00;;;18.90;99.90;;;;;;5117025;28;20587;-43
2023/07/31 10:35:48;;;;;;;2.17;1.40;;;18.90;99.90;;;;;;5116177;28;20196;-43
2023/07/31 10:38:14;;;;;;;3.27;1.83;;;18.90;99.90;;;;;;5116700;28;20167;-42
2023/07/31 10:40:41;;;;;;;2.90;1.73;;;18.90;99.90;;;;;;5098483;28;20209;-43
2023/07/31 10:43:11;;;;;;;2.93;1.40;;;18.90;99.90;;;;;;5116203;28;20183;-43
2023/07/31 10:45:39;;;;;;;5.00;1.50;;;18.80;99.90;;;;;;5097793;28;20614;-44
2023/07/31 10:48:07;;;;;;;2.97;1.47;;;18.80;99.90;;;;;;5116446;28;20543;-44
2023/07/31 10:50:38;;;;;;;2.93;1.30;;;18.80;99.90;;;;;;5116238;28;20672;-43
2023/07/31 10:53:04;;;;;;;2.70;1.40;;;18.90;99.90;;;;;;5116333;28;20158;-42
2023/07/31 10:55:32;;;;;;;3.17;1.10;;;19.10;99.90;;;;;;5097628;28;20206;-43
2023/07/31 10:58:10;;;;;;;3.33;1.23;;;19.20;99.90;;;;;;5115867;28;20178;-44
2023/07/31 11:00:41;;;;;;;1.97;1.30;;;19.30;99.90;;;;;;5097362;28;20247;-45
2023/07/31 11:03:22;;;;;;;2.07;1.43;;;19.60;99.90;;;;;;5116383;28;20181;-42
2023/07/31 11:05:54;;;;;;;4.80;1.67;;;19.70;99.90;;;;;;5115573;28;20734;-43
2023/07/31 11:08:28;;;;;;;1.63;1.10;;;19.80;99.90;;;;;;5097426;28;20179;-43
2023/07/31 11:11:02;;;;;;;1.63;1.13;;;20.00;99.90;;;;;;5097459;28;20227;-45
2023/07/31 11:13:29;;;;;;;2.83;1.00;;;20.00;99.90;;;;;;5115603;28;20235;-45
2023/07/31 11:15:54;;;;;;;2.20;1.23;;;20.00;99.90;;;;;;5115377;28;20186;-44
2023/07/31 11:18:20;;;;;;;3.23;1.17;;;20.10;99.90;;;;;;5115269;28;20183;-44
2023/07/31 11:20:46;;;;;;;2.00;1.00;;;20.10;99.90;;;;;;5114726;28;20278;-44
2023/07/31 11:30:30;;;;;;;1.80;0.97;;;20.10;99.90;;;;;;5115625;28;20182;-44
2023/07/31 11:33:35;;;;;;;2.73;1.57;;;20.00;99.90;;;;;;5109786;28;20182;-43
2023/07/31 11:36:03;;;;;;;1.93;0.90;;;20.00;99.90;;;;;;5111029;28;20686;-43
2023/07/31 11:38:49;;;;;;;3.47;1.10;;;20.00;99.90;;;;;;5113022;28;20201;-43
2023/07/31 11:41:36;;;;;;;2.37;0.87;;;20.00;99.90;;;;;;5114671;28;20198;-43
2023/07/31 11:44:02;;;;;;;5.53;1.30;;;20.00;99.90;;;;;;5114982;28;20200;-43
2023/07/31 11:46:36;;;;;;;2.73;1.23;;;19.90;99.90;;;;;;5096787;28;20673;-44
2023/07/31 11:49:08;;;;;;;1.60;1.20;;;19.90;99.90;;;;;;5096735;28;20182;-43
2023/07/31 11:51:35;;;;;;;1.70;1.20;;;19.90;99.90;;;;;;5115470;28;20233;-43
2023/07/31 11:54:03;;;;;;;2.60;1.40;;;19.90;99.90;;;;;;5114733;28;20182;-44
2023/07/31 11:56:32;;;;;;;6.93;1.33;;;19.90;99.90;;;;;;5115084;28;20269;-44
2023/07/31 11:59:02;;;;;;;5.40;1.60;;;19.90;99.90;;;;;;5096458;28;20178;-44
2023/07/31 12:01:28;;;;;;;3.47;1.40;;;19.80;99.90;;;;;;5096569;28;20227;-46
2023/07/31 12:03:55;;;;;;;1.87;1.40;;;19.80;99.90;;;;;;5114626;28;20261;-44
2023/07/31 12:06:21;;;;;;;1.97;1.50;;;19.80;99.90;;;;;;5096820;28;20273;-42
2023/07/31 12:08:51;;;;;;;3.63;1.80;;;19.70;99.90;;;;;;5096239;28;20194;-44
2023/07/31 12:11:17;;;;;;;2.90;1.80;;;19.70;99.90;;;;;;5096246;28;20687;-44
2023/07/31 12:13:43;;;;;;;1.97;1.53;;;19.60;99.90;;;;;;5114495;28;20180;-45
2023/07/31 12:16:09;;;;;;;2.40;1.67;;;19.60;99.90;;;;;;5096072;28;20197;-44
2023/07/31 12:18:38;;;;;;;2.13;1.70;;;19.60;99.90;;;;;;5096378;28;20573;-44
2023/07/31 12:21:11;;;;;;;2.60;1.80;;;19.60;99.90;;;;;;5095926;28;20206;-45
2023/07/31 12:23:42;;;;;;;4.67;1.80;;;19.50;99.90;;;;;;5096017;28;20170;-44
2023/07/31 12:26:16;;;;;;;3.90;2.13;;;19.60;99.90;;;;;;5114623;28;20332;-45
2023/07/31 12:28:46;;;;;;;5.30;2.20;;;19.70;99.90;;;;;;5096086;28;20565;-44
2023/07/31 12:31:14;;;;;;;4.83;2.13;;;19.90;99.90;;;;;;5114448;28;20642;-44
2023/07/31 12:33:41;;;;;;;3.40;1.77;;;20.10;99.90;;;;;;5096082;28;20316;-45
2023/07/31 12:36:11;;;;;;;5.03;2.13;;;20.40;99.90;;;;;;5114319;28;20193;-43
2023/07/31 12:38:37;;;;;;;4.40;2.13;;;20.60;99.90;;;;;;5095917;28;20273;-45
2023/07/31 12:41:08;;;;;;;6.43;2.30;;;20.70;99.90;;;;;;5096448;28;20233;-43
2023/07/31 12:43:42;;;;;;;7.23;2.40;;;20.70;99.90;;;;;;5115108;28;20560;-44
2023/07/31 12:46:12;;;;;;;4.27;1.93;;;20.70;99.90;;;;;;5096393;28;20288;-44
2023/07/31 12:48:45;;;;;;;4.50;2.00;;;20.70;99.90;;;;;;5096018;28;20551;-44
2023/07/31 12:51:15;;;;;;;2.93;2.20;;;20.60;99.90;;;;;;5095645;28;20197;-44
2023/07/31 12:53:42;;;;;;;3.57;2.10;;;20.50;99.90;;;;;;5096087;28;20185;-46
2023/07/31 12:56:08;;;;;;;4.10;1.93;;;20.50;99.90;;;;;;5095609;28;20208;-43
2023/07/31 12:58:34;;;;;;;5.33;2.27;;;20.40;99.90;;;;;;5095993;28;20178;-44
2023/07/31 13:01:03;;;;;;;4.47;2.67;;;20.40;99.90;;;;;;5113922;28;20259;-43
2023/07/31 13:03:32;;;;;;;2.00;1.60;;;20.30;99.90;;;;;;5095669;28;20583;-45
2023/07/31 13:05:58;;;;;;;2.17;1.87;;;20.30;99.90;;;;;;5113824;28;20208;-43
2023/07/31 13:08:26;;;;;;;5.03;2.40;;;20.40;99.90;;;;;;5096516;28;20174;-42
2023/07/31 13:10:53;;;;;;;3.20;2.00;;;20.40;99.90;;;;;;5095188;28;20218;-46
2023/07/31 13:13:19;;;;;;;3.73;1.97;;;20.60;99.90;;;;;;5095869;28;20182;-43
2023/07/31 13:15:45;;;;;;;4.37;2.00;;;20.70;99.90;;;;;;5095676;28;20213;-44
2023/07/31 13:18:12;;;;;;;3.80;2.00;;;20.80;99.90;;;;;;5096214;28;20190;-46
2023/07/31 13:20:38;;;;;;;3.57;2.07;;;21.10;99.90;;;;;;5114179;28;20235;-45
2023/07/31 13:23:04;;;;;;;5.17;2.10;;;21.30;99.90;;;;;;5096133;28;20182;-45
2023/07/31 13:25:29;;;;;;;8.13;2.40;;;21.30;99.90;;;;;;5096154;28;20205;-48
2023/07/31 13:27:55;;;;;;;5.90;2.20;;;21.50;99.90;;;;;;5096086;28;20178;-48
2023/07/31 13:30:23;;;;;;;3.50;2.37;;;21.60;99.90;;;;;;5095959;28;20269;-44
2023/07/31 13:32:48;;;;;;;4.50;2.13;;;21.80;99.90;;;;;;5096135;28;20707;-49
2023/07/31 13:35:14;;;;;;;3.60;2.10;;;22.00;99.90;;;;;;5096419;28;20178;-45
2023/07/31 13:37:40;;;;;;;2.30;1.73;;;22.00;99.90;;;;;;5096178;28;20182;-45
2023/07/31 13:40:08;;;;;;;3.90;2.00;;;22.00;99.90;;;;;;5114407;28;20205;-45
2023/07/31 13:42:34;;;;;;;4.00;1.67;;;22.00;99.90;;;;;;5096777;28;20194;-50
2023/07/31 13:45:00;;;;;;;3.23;2.00;;;22.10;99.90;;;;;;5117691;28;20174;-46
2023/07/31 13:47:26;;;;;;;4.70;1.90;;;22.10;99.90;;;;;;5099030;28;20621;-50
2023/07/31 13:49:51;;;;;;;2.57;1.60;;;22.00;99.90;;;;;;5099304;28;20190;-43
2023/07/31 13:52:30;;;;;;;2.87;2.20;;;21.90;99.90;;;;;;5117578;28;20531;-43
2023/07/31 13:55:12;;;;;;;3.13;1.90;;;21.70;99.90;;;;;;5067446;28;20672;-44
2023/07/31 14:01:06;;;;;;;4.57;1.63;;;21.40;99.90;;;;;;5117616;28;20216;-44
2023/07/31 14:03:54;;;;;;;2.93;1.90;;;21.20;99.90;;;;;;5082846;28;20193;-43
2023/07/31 14:10:12;;;;;;;3.70;2.03;;;21.00;99.90;;;;;;5118127;28;20280;-42
2023/07/31 14:23:03;;;;;;;3.37;2.73;;;20.60;99.90;;;;;;5117481;28;20521;-43
2023/07/31 15:10:58;;;;;;;5.03;2.60;;;20.80;99.90;;;;;;5056533;28;20188;-43
2023/07/31 15:14:11;;;;;;;4.20;2.27;;;20.70;99.90;;;;;;5037096;28;20208;-42
2023/07/31 15:17:02;;;;;;;3.83;2.47;;;20.70;99.90;;;;;;5036221;28;20235;-42
2023/07/31 15:20:26;;;;;;;4.13;2.50;;;20.70;99.90;;;;;;5041345;28;20228;-43
2023/07/31 15:22:55;;;;;;;3.73;2.70;;;20.70;99.90;;;;;;5100409;28;20169;-44
2023/07/31 15:29:36;;;;;;;3.33;2.53;;;20.70;99.90;;;;;;5034141;28;20211;-44
2023/07/31 15:36:17;;;;;;;5.83;2.60;;;20.60;99.90;;;;;;5118788;28;20213;-44
2023/07/31 15:39:31;;;;;;;4.73;2.73;;;20.50;99.90;;;;;;5066112;28;20669;-44
2023/07/31 15:43:00;;;;;;;3.70;2.20;;;20.50;99.90;;;;;;5104702;28;20194;-44
2023/07/31 15:52:34;;;;;;;4.47;2.57;;;20.20;99.90;;;;;;5116206;28;20328;-44
2023/07/31 15:55:04;;;;;;;5.43;2.40;;;20.10;99.90;;;;;;5115939;28;20174;-43
2023/07/31 15:57:46;;;;;;;3.93;2.20;;;20.00;99.90;;;;;;5080866;28;20198;-44
2023/07/31 16:00:29;;;;;;;4.00;2.17;;;19.90;99.90;;;;;;5065627;28;20205;-44
2023/07/31 16:03:01;;;;;;;3.53;1.77;;;19.80;99.90;;;;;;5115219;28;20237;-43
2023/07/31 16:05:33;;;;;;;2.73;1.80;;;19.70;99.90;;;;;;5097248;28;20658;-44
2023/07/31 16:08:00;;;;;;;1.87;1.60;;;19.60;99.90;;;;;;5064131;28;20187;-42
2023/07/31 16:10:35;;;;;;;2.80;1.60;;;19.50;99.90;;;;;;5096816;28;20178;-44